sensor_id;sensor_type;location;lat;lon;timestamp;pressure;altitude;pressure_sealevel;temperature;humidity
70256;BME280;57669;52.624;-1.688;2023-04-05T00:01:54;101666.84;;;10.57;36.41
70256;BME280;57669;52.624;-1.688;2023-04-05T00:04:22;101669.86;;;9.14;39.09
70256;BME280;57669;52.624;-1.688;2023-04-05T00:06:45;101670.64;;;9.39;38.22
70256;BME280;57669;52.624;-1.688;2023-04-05T00:09:10;101663.04;;;10.39;36.58
70256;BME280;57669;52.624;-1.688;2023-04-05T00:11:36;101665.31;;;9.02;38.33
70256;BME280;57669;52.624;-1.688;2023-04-05T00:14:02;101657.01;;;6.83;41.24
70256;BME280;57669;52.624;-1.688;2023-04-05T00:16:27;101659.05;;;8.92;39.16
70256;BME280;57669;52.624;-1.688;2023-04-05T00:18:51;101656.35;;;7.24;42.26
70256;BME280;57669;52.624;-1.688;2023-04-05T00:21:17;101655.77;;;8.04;40.21
70256;BME280;57669;52.624;-1.688;2023-04-05T00:23:42;101654.13;;;8.77;39.92
70256;BME280;57669;52.624;-1.688;2023-04-05T00:26:08;101647.56;;;7.76;41.54
70256;BME280;57669;52.624;-1.688;2023-04-05T00:28:34;101650.21;;;8.06;41.17
70256;BME280;57669;52.624;-1.688;2023-04-05T00:30:59;101650.05;;;8.84;39.95
70256;BME280;57669;52.624;-1.688;2023-04-05T00:33:24;101644.80;;;7.65;40.30
70256;BME280;57669;52.624;-1.688;2023-04-05T00:35:49;101642.45;;;7.47;42.25
70256;BME280;57669;52.624;-1.688;2023-04-05T00:38:14;101645.08;;;6.95;42.97
70256;BME280;57669;52.624;-1.688;2023-04-05T00:40:39;101650.14;;;6.37;43.35
70256;BME280;57669;52.624;-1.688;2023-04-05T00:43:05;101649.32;;;6.66;43.97
70256;BME280;57669;52.624;-1.688;2023-04-05T00:45:30;101646.77;;;8.14;40.67
70256;BME280;57669;52.624;-1.688;2023-04-05T00:47:56;101645.20;;;5.86;44.36
70256;BME280;57669;52.624;-1.688;2023-04-05T00:50:21;101642.78;;;5.94;45.26
70256;BME280;57669;52.624;-1.688;2023-04-05T00:52:47;101638.28;;;8.19;41.59
70256;BME280;57669;52.624;-1.688;2023-04-05T00:55:13;101634.54;;;7.51;42.42
70256;BME280;57669;52.624;-1.688;2023-04-05T00:57:38;101633.55;;;8.02;42.22
70256;BME280;57669;52.624;-1.688;2023-04-05T01:00:04;101631.07;;;8.08;41.30
70256;BME280;57669;52.624;-1.688;2023-04-05T01:02:31;101629.88;;;5.91;44.78
70256;BME280;57669;52.624;-1.688;2023-04-05T01:04:58;101626.02;;;5.38;46.60
70256;BME280;57669;52.624;-1.688;2023-04-05T01:07:24;101626.50;;;6.43;44.76
70256;BME280;57669;52.624;-1.688;2023-04-05T01:09:50;101620.64;;;9.02;40.41
70256;BME280;57669;52.624;-1.688;2023-04-05T01:12:17;101616.46;;;9.42;38.96
70256;BME280;57669;52.624;-1.688;2023-04-05T01:14:44;101610.93;;;9.17;39.40
70256;BME280;57669;52.624;-1.688;2023-04-05T01:17:00;101614.30;;;7.44;42.05
70256;BME280;57669;52.624;-1.688;2023-04-05T01:19:27;101618.33;;;8.44;40.59
70256;BME280;57669;52.624;-1.688;2023-04-05T01:24:28;101610.85;;;7.63;42.17
70256;BME280;57669;52.624;-1.688;2023-04-05T01:26:56;101607.67;;;7.23;43.79
70256;BME280;57669;52.624;-1.688;2023-04-05T01:31:39;101613.00;;;8.69;41.20
70256;BME280;57669;52.624;-1.688;2023-04-05T01:34:07;101611.63;;;8.24;41.20
70256;BME280;57669;52.624;-1.688;2023-04-05T01:36:28;101609.01;;;9.28;39.74
70256;BME280;57669;52.624;-1.688;2023-04-05T01:38:50;101608.60;;;6.20;45.61
70256;BME280;57669;52.624;-1.688;2023-04-05T01:41:15;101603.89;;;8.79;41.39
70256;BME280;57669;52.624;-1.688;2023-04-05T01:43:41;101599.10;;;6.33;44.71
70256;BME280;57669;52.624;-1.688;2023-04-05T01:46:06;101596.12;;;6.77;45.23
70256;BME280;57669;52.624;-1.688;2023-04-05T01:48:32;101595.20;;;7.83;43.11
70256;BME280;57669;52.624;-1.688;2023-04-05T01:50:57;101592.02;;;6.96;45.68
70256;BME280;57669;52.624;-1.688;2023-04-05T01:55:48;101587.23;;;6.40;47.59
70256;BME280;57669;52.624;-1.688;2023-04-05T01:58:13;101578.98;;;7.51;44.74
70256;BME280;57669;52.624;-1.688;2023-04-05T02:00:39;101584.41;;;5.47;49.35
70256;BME280;57669;52.624;-1.688;2023-04-05T02:03:04;101581.91;;;7.14;45.94
70256;BME280;57669;52.624;-1.688;2023-04-05T02:05:30;101584.46;;;6.76;46.59
70256;BME280;57669;52.624;-1.688;2023-04-05T02:07:55;101590.74;;;8.64;43.98
70256;BME280;57669;52.624;-1.688;2023-04-05T02:10:21;101585.93;;;6.73;47.39
70256;BME280;57669;52.624;-1.688;2023-04-05T02:12:46;101579.17;;;7.11;45.80
70256;BME280;57669;52.624;-1.688;2023-04-05T02:15:11;101583.77;;;8.64;43.07
70256;BME280;57669;52.624;-1.688;2023-04-05T02:17:37;101582.77;;;7.86;44.98
70256;BME280;57669;52.624;-1.688;2023-04-05T02:20:04;101586.63;;;7.80;44.60
70256;BME280;57669;52.624;-1.688;2023-04-05T02:22:28;101584.30;;;6.73;47.25
70256;BME280;57669;52.624;-1.688;2023-04-05T02:24:54;101580.97;;;5.76;49.89
70256;BME280;57669;52.624;-1.688;2023-04-05T02:27:19;101575.98;;;7.48;47.87
70256;BME280;57669;52.624;-1.688;2023-04-05T02:29:45;101573.83;;;4.92;51.11
70256;BME280;57669;52.624;-1.688;2023-04-05T02:32:10;101566.18;;;7.62;46.61
70256;BME280;57669;52.624;-1.688;2023-04-05T02:34:36;101563.30;;;6.89;48.48
70256;BME280;57669;52.624;-1.688;2023-04-05T02:37:01;101562.62;;;5.73;50.28
70256;BME280;57669;52.624;-1.688;2023-04-05T02:39:26;101555.12;;;7.44;46.97
70256;BME280;57669;52.624;-1.688;2023-04-05T02:41:51;101555.88;;;6.82;47.72
70256;BME280;57669;52.624;-1.688;2023-04-05T02:44:16;101553.97;;;5.58;49.70
70256;BME280;57669;52.624;-1.688;2023-04-05T02:46:42;101551.80;;;8.17;45.11
70256;BME280;57669;52.624;-1.688;2023-04-05T02:49:07;101546.92;;;6.36;48.42
70256;BME280;57669;52.624;-1.688;2023-04-05T02:51:33;101548.31;;;8.08;45.18
70256;BME280;57669;52.624;-1.688;2023-04-05T02:53:58;101545.76;;;5.08;51.29
70256;BME280;57669;52.624;-1.688;2023-04-05T02:56:23;101537.33;;;6.24;49.78
70256;BME280;57669;52.624;-1.688;2023-04-05T02:58:49;101540.86;;;6.60;49.79
70256;BME280;57669;52.624;-1.688;2023-04-05T03:01:15;101541.37;;;8.15;46.31
70256;BME280;57669;52.624;-1.688;2023-04-05T03:03:40;101537.39;;;7.20;46.64
70256;BME280;57669;52.624;-1.688;2023-04-05T03:06:06;101539.67;;;5.32;50.64
70256;BME280;57669;52.624;-1.688;2023-04-05T03:08:31;101538.78;;;6.50;49.18
70256;BME280;57669;52.624;-1.688;2023-04-05T03:10:56;101533.44;;;7.32;47.46
70256;BME280;57669;52.624;-1.688;2023-04-05T03:13:22;101537.06;;;8.50;45.15
70256;BME280;57669;52.624;-1.688;2023-04-05T03:15:47;101531.63;;;6.53;48.85
70256;BME280;57669;52.624;-1.688;2023-04-05T03:18:13;101532.88;;;5.62;50.49
70256;BME280;57669;52.624;-1.688;2023-04-05T03:20:38;101532.14;;;6.12;49.34
70256;BME280;57669;52.624;-1.688;2023-04-05T03:23:03;101535.63;;;6.16;50.20
70256;BME280;57669;52.624;-1.688;2023-04-05T03:25:28;101537.47;;;4.62;52.54
70256;BME280;57669;52.624;-1.688;2023-04-05T03:27:54;101536.38;;;7.64;46.85
70256;BME280;57669;52.624;-1.688;2023-04-05T03:30:19;101534.42;;;6.63;48.37
70256;BME280;57669;52.624;-1.688;2023-04-05T03:32:44;101534.21;;;7.54;47.17
70256;BME280;57669;52.624;-1.688;2023-04-05T03:35:10;101534.86;;;5.98;50.21
70256;BME280;57669;52.624;-1.688;2023-04-05T03:37:35;101533.63;;;5.99;50.30
70256;BME280;57669;52.624;-1.688;2023-04-05T03:40:01;101529.47;;;5.49;51.36
70256;BME280;57669;52.624;-1.688;2023-04-05T03:42:26;101527.51;;;6.08;49.56
70256;BME280;57669;52.624;-1.688;2023-04-05T03:44:52;101523.28;;;6.94;48.06
70256;BME280;57669;52.624;-1.688;2023-04-05T03:47:17;101523.79;;;6.78;48.97
70256;BME280;57669;52.624;-1.688;2023-04-05T03:49:43;101526.19;;;8.37;45.70
70256;BME280;57669;52.624;-1.688;2023-04-05T03:52:08;101522.50;;;6.78;48.86
70256;BME280;57669;52.624;-1.688;2023-04-05T03:54:34;101525.09;;;8.22;45.46
70256;BME280;57669;52.624;-1.688;2023-04-05T03:57:00;101517.82;;;8.85;44.22
70256;BME280;57669;52.624;-1.688;2023-04-05T03:59:25;101516.44;;;7.81;46.05
70256;BME280;57669;52.624;-1.688;2023-04-05T04:01:50;101512.79;;;6.16;49.23
70256;BME280;57669;52.624;-1.688;2023-04-05T04:04:16;101508.81;;;6.01;50.04
70256;BME280;57669;52.624;-1.688;2023-04-05T04:06:41;101509.18;;;6.31;50.10
70256;BME280;57669;52.624;-1.688;2023-04-05T04:09:06;101506.28;;;6.25;50.08
70256;BME280;57669;52.624;-1.688;2023-04-05T04:11:32;101503.43;;;6.92;47.92
70256;BME280;57669;52.624;-1.688;2023-04-05T04:13:57;101504.49;;;7.09;49.20
70256;BME280;57669;52.624;-1.688;2023-04-05T04:16:23;101501.02;;;6.06;50.53
70256;BME280;57669;52.624;-1.688;2023-04-05T04:18:49;101497.43;;;6.03;50.22
70256;BME280;57669;52.624;-1.688;2023-04-05T04:21:14;101499.35;;;7.37;48.15
70256;BME280;57669;52.624;-1.688;2023-04-05T04:23:39;101500.53;;;8.31;45.98
70256;BME280;57669;52.624;-1.688;2023-04-05T04:26:05;101497.33;;;6.26;48.83
70256;BME280;57669;52.624;-1.688;2023-04-05T04:28:31;101497.57;;;6.78;47.95
70256;BME280;57669;52.624;-1.688;2023-04-05T04:30:56;101494.74;;;8.03;46.26
70256;BME280;57669;52.624;-1.688;2023-04-05T04:33:21;101492.74;;;4.69;53.52
70256;BME280;57669;52.624;-1.688;2023-04-05T04:35:47;101488.00;;;7.08;48.91
70256;BME280;57669;52.624;-1.688;2023-04-05T04:38:12;101488.73;;;5.28;52.55
70256;BME280;57669;52.624;-1.688;2023-04-05T04:40:37;101482.88;;;6.85;49.28
70256;BME280;57669;52.624;-1.688;2023-04-05T04:43:03;101477.98;;;7.22;48.76
70256;BME280;57669;52.624;-1.688;2023-04-05T04:45:29;101468.45;;;6.81;48.72
70256;BME280;57669;52.624;-1.688;2023-04-05T04:47:54;101475.39;;;5.25;52.75
70256;BME280;57669;52.624;-1.688;2023-04-05T04:50:19;101474.39;;;4.52;53.86
70256;BME280;57669;52.624;-1.688;2023-04-05T04:52:45;101471.78;;;5.51;53.44
70256;BME280;57669;52.624;-1.688;2023-04-05T04:55:11;101473.02;;;4.46;55.38
70256;BME280;57669;52.624;-1.688;2023-04-05T04:57:36;101473.77;;;6.93;50.04
70256;BME280;57669;52.624;-1.688;2023-04-05T05:00:01;101474.00;;;7.00;48.94
70256;BME280;57669;52.624;-1.688;2023-04-05T05:02:27;101476.85;;;5.81;51.88
70256;BME280;57669;52.624;-1.688;2023-04-05T05:04:52;101475.68;;;3.99;55.61
70256;BME280;57669;52.624;-1.688;2023-04-05T05:07:18;101469.81;;;4.45;54.81
70256;BME280;57669;52.624;-1.688;2023-04-05T05:09:42;101469.39;;;5.00;53.49
70256;BME280;57669;52.624;-1.688;2023-04-05T05:12:08;101463.60;;;4.85;54.90
70256;BME280;57669;52.624;-1.688;2023-04-05T05:14:33;101461.98;;;4.21;54.98
70256;BME280;57669;52.624;-1.688;2023-04-05T05:16:58;101464.86;;;4.86;53.66
70256;BME280;57669;52.624;-1.688;2023-04-05T05:19:24;101466.03;;;3.47;59.04
70256;BME280;57669;52.624;-1.688;2023-04-05T05:21:49;101458.04;;;6.00;52.48
70256;BME280;57669;52.624;-1.688;2023-04-05T05:24:15;101455.81;;;4.66;54.51
70256;BME280;57669;52.624;-1.688;2023-04-05T05:26:40;101453.10;;;6.24;50.93
70256;BME280;57669;52.624;-1.688;2023-04-05T05:29:06;101453.30;;;6.08;50.33
70256;BME280;57669;52.624;-1.688;2023-04-05T05:31:32;101454.16;;;6.85;49.07
70256;BME280;57669;52.624;-1.688;2023-04-05T05:33:57;101450.31;;;8.80;45.42
70256;BME280;57669;52.624;-1.688;2023-04-05T05:36:22;101456.27;;;4.59;52.18
70256;BME280;57669;52.624;-1.688;2023-04-05T05:38:47;101455.87;;;7.63;47.13
70256;BME280;57669;52.624;-1.688;2023-04-05T05:41:13;101454.71;;;4.58;53.66
70256;BME280;57669;52.624;-1.688;2023-04-05T05:43:38;101458.30;;;7.18;48.66
70256;BME280;57669;52.624;-1.688;2023-04-05T05:46:03;101453.97;;;5.57;51.92
70256;BME280;57669;52.624;-1.688;2023-04-05T05:48:29;101458.23;;;7.43;47.61
70256;BME280;57669;52.624;-1.688;2023-04-05T05:50:54;101461.01;;;7.00;48.33
70256;BME280;57669;52.624;-1.688;2023-04-05T05:53:19;101461.95;;;5.56;50.73
70256;BME280;57669;52.624;-1.688;2023-04-05T05:55:45;101458.54;;;5.96;50.08
70256;BME280;57669;52.624;-1.688;2023-04-05T05:58:10;101459.73;;;5.64;50.35
70256;BME280;57669;52.624;-1.688;2023-04-05T06:00:36;101461.12;;;7.89;46.86
70256;BME280;57669;52.624;-1.688;2023-04-05T06:03:02;101458.52;;;7.40;47.91
70256;BME280;57669;52.624;-1.688;2023-04-05T06:05:27;101457.05;;;4.89;52.68
70256;BME280;57669;52.624;-1.688;2023-04-05T06:07:52;101451.73;;;6.58;49.41
70256;BME280;57669;52.624;-1.688;2023-04-05T06:10:18;101449.15;;;6.40;49.57
70256;BME280;57669;52.624;-1.688;2023-04-05T06:12:43;101447.15;;;6.23;50.01
70256;BME280;57669;52.624;-1.688;2023-04-05T06:15:09;101448.13;;;6.97;48.66
70256;BME280;57669;52.624;-1.688;2023-04-05T06:17:34;101438.38;;;5.77;50.21
70256;BME280;57669;52.624;-1.688;2023-04-05T06:19:59;101441.93;;;8.04;46.68
70256;BME280;57669;52.624;-1.688;2023-04-05T06:22:24;101438.04;;;7.44;46.66
70256;BME280;57669;52.624;-1.688;2023-04-05T06:24:49;101434.85;;;6.36;49.70
70256;BME280;57669;52.624;-1.688;2023-04-05T06:27:14;101434.49;;;6.53;48.85
70256;BME280;57669;52.624;-1.688;2023-04-05T06:29:40;101440.84;;;7.17;48.32
70256;BME280;57669;52.624;-1.688;2023-04-05T06:32:05;101434.76;;;7.72;47.25
70256;BME280;57669;52.624;-1.688;2023-04-05T06:34:30;101429.74;;;7.01;49.29
70256;BME280;57669;52.624;-1.688;2023-04-05T06:36:56;101438.28;;;4.29;55.24
70256;BME280;57669;52.624;-1.688;2023-04-05T06:39:21;101441.87;;;4.27;55.14
70256;BME280;57669;52.624;-1.688;2023-04-05T06:41:46;101441.93;;;4.00;57.49
70256;BME280;57669;52.624;-1.688;2023-04-05T06:44:11;101446.03;;;3.55;58.66
70256;BME280;57669;52.624;-1.688;2023-04-05T06:46:37;101437.24;;;4.56;56.27
70256;BME280;57669;52.624;-1.688;2023-04-05T06:49:02;101442.69;;;4.37;55.38
70256;BME280;57669;52.624;-1.688;2023-04-05T06:51:27;101436.88;;;6.53;51.23
70256;BME280;57669;52.624;-1.688;2023-04-05T06:53:53;101436.87;;;5.85;53.16
70256;BME280;57669;52.624;-1.688;2023-04-05T06:56:18;101434.78;;;4.67;54.43
70256;BME280;57669;52.624;-1.688;2023-04-05T06:58:44;101436.34;;;4.56;55.51
70256;BME280;57669;52.624;-1.688;2023-04-05T07:01:09;101437.70;;;6.10;52.30
70256;BME280;57669;52.624;-1.688;2023-04-05T07:03:34;101441.47;;;6.81;50.14
70256;BME280;57669;52.624;-1.688;2023-04-05T07:08:26;101440.61;;;6.18;52.48
70256;BME280;57669;52.624;-1.688;2023-04-05T07:10:51;101444.87;;;8.07;47.94
70256;BME280;57669;52.624;-1.688;2023-04-05T07:13:16;101447.00;;;6.74;50.21
70256;BME280;57669;52.624;-1.688;2023-04-05T07:15:42;101453.04;;;5.22;53.74
70256;BME280;57669;52.624;-1.688;2023-04-05T07:18:07;101450.77;;;6.87;50.45
70256;BME280;57669;52.624;-1.688;2023-04-05T07:20:33;101450.49;;;6.37;52.10
70256;BME280;57669;52.624;-1.688;2023-04-05T07:22:58;101451.29;;;5.60;53.49
70256;BME280;57669;52.624;-1.688;2023-04-05T07:25:24;101445.73;;;6.61;51.67
70256;BME280;57669;52.624;-1.688;2023-04-05T07:27:49;101448.01;;;8.26;47.98
70256;BME280;57669;52.624;-1.688;2023-04-05T07:30:15;101445.11;;;5.17;54.40
70256;BME280;57669;52.624;-1.688;2023-04-05T07:32:40;101441.73;;;4.73;55.28
70256;BME280;57669;52.624;-1.688;2023-04-05T07:35:07;101436.10;;;6.15;52.35
70256;BME280;57669;52.624;-1.688;2023-04-05T07:37:37;101435.09;;;6.91;50.88
70256;BME280;57669;52.624;-1.688;2023-04-05T07:39:57;101433.55;;;7.01;50.95
70256;BME280;57669;52.624;-1.688;2023-04-05T07:42:23;101433.50;;;7.69;49.74
70256;BME280;57669;52.624;-1.688;2023-04-05T07:44:48;101434.14;;;6.10;53.51
70256;BME280;57669;52.624;-1.688;2023-04-05T07:47:14;101434.83;;;6.94;52.11
70256;BME280;57669;52.624;-1.688;2023-04-05T07:49:38;101434.80;;;5.60;55.94
70256;BME280;57669;52.624;-1.688;2023-04-05T07:52:04;101434.64;;;6.31;56.31
70256;BME280;57669;52.624;-1.688;2023-04-05T07:54:30;101437.30;;;7.01;53.80
70256;BME280;57669;52.624;-1.688;2023-04-05T07:56:55;101440.21;;;7.03;53.78
70256;BME280;57669;52.624;-1.688;2023-04-05T07:59:21;101438.26;;;4.80;58.92
70256;BME280;57669;52.624;-1.688;2023-04-05T08:01:46;101436.64;;;5.97;56.97
70256;BME280;57669;52.624;-1.688;2023-04-05T08:04:12;101438.52;;;4.22;64.11
70256;BME280;57669;52.624;-1.688;2023-04-05T08:06:37;101435.36;;;4.34;62.50
70256;BME280;57669;52.624;-1.688;2023-04-05T08:09:03;101433.60;;;5.14;60.58
70256;BME280;57669;52.624;-1.688;2023-04-05T08:11:28;101433.99;;;5.27;62.09
70256;BME280;57669;52.624;-1.688;2023-04-05T08:13:53;101435.37;;;4.67;63.33
70256;BME280;57669;52.624;-1.688;2023-04-05T08:16:19;101434.02;;;4.90;61.93
70256;BME280;57669;52.624;-1.688;2023-04-05T08:18:44;101432.95;;;6.63;56.44
70256;BME280;57669;52.624;-1.688;2023-04-05T08:21:10;101434.71;;;6.79;55.86
70256;BME280;57669;52.624;-1.688;2023-04-05T08:23:36;101434.66;;;7.16;56.01
70256;BME280;57669;52.624;-1.688;2023-04-05T08:26:01;101432.35;;;4.49;62.19
70256;BME280;57669;52.624;-1.688;2023-04-05T08:28:27;101431.15;;;4.23;64.93
70256;BME280;57669;52.624;-1.688;2023-04-05T08:30:52;101427.67;;;5.87;60.32
70256;BME280;57669;52.624;-1.688;2023-04-05T08:33:18;101428.66;;;7.02;58.58
70256;BME280;57669;52.624;-1.688;2023-04-05T08:35:43;101423.62;;;6.44;58.48
70256;BME280;57669;52.624;-1.688;2023-04-05T08:38:09;101427.73;;;7.22;58.00
70256;BME280;57669;52.624;-1.688;2023-04-05T08:40:39;101424.47;;;6.38;59.70
70256;BME280;57669;52.624;-1.688;2023-04-05T08:43:05;101423.17;;;7.00;59.63
70256;BME280;57669;52.624;-1.688;2023-04-05T08:45:25;101418.41;;;6.39;59.90
70256;BME280;57669;52.624;-1.688;2023-04-05T08:47:51;101423.32;;;5.58;61.26
70256;BME280;57669;52.624;-1.688;2023-04-05T08:50:16;101424.14;;;7.01;60.12
70256;BME280;57669;52.624;-1.688;2023-04-05T08:52:45;101425.60;;;5.69;61.34
70256;BME280;57669;52.624;-1.688;2023-04-05T08:55:08;101424.92;;;4.80;65.99
70256;BME280;57669;52.624;-1.688;2023-04-05T08:57:33;101424.04;;;4.84;66.19
70256;BME280;57669;52.624;-1.688;2023-04-05T08:59:58;101426.07;;;5.24;64.08
70256;BME280;57669;52.624;-1.688;2023-04-05T09:02:24;101420.76;;;6.58;60.18
70256;BME280;57669;52.624;-1.688;2023-04-05T09:04:49;101425.44;;;5.15;64.92
70256;BME280;57669;52.624;-1.688;2023-04-05T09:07:13;101422.46;;;7.61;58.31
70256;BME280;57669;52.624;-1.688;2023-04-05T09:09:43;101419.06;;;6.75;60.53
70256;BME280;57669;52.624;-1.688;2023-04-05T09:12:07;101418.02;;;7.69;58.38
70256;BME280;57669;52.624;-1.688;2023-04-05T09:14:33;101414.54;;;7.29;59.54
70256;BME280;57669;52.624;-1.688;2023-04-05T09:16:57;101417.31;;;5.14;65.99
70256;BME280;57669;52.624;-1.688;2023-04-05T09:19:21;101412.74;;;6.16;63.07
70256;BME280;57669;52.624;-1.688;2023-04-05T09:24:12;101410.84;;;6.48;60.45
70256;BME280;57669;52.624;-1.688;2023-04-05T09:26:37;101414.92;;;5.59;64.04
70256;BME280;57669;52.624;-1.688;2023-04-05T09:29:03;101411.10;;;5.61;63.42
70256;BME280;57669;52.624;-1.688;2023-04-05T09:31:29;101409.82;;;4.83;64.53
70256;BME280;57669;52.624;-1.688;2023-04-05T09:33:53;101405.34;;;4.94;66.88
70256;BME280;57669;52.624;-1.688;2023-04-05T09:36:19;101403.42;;;4.84;67.70
70256;BME280;57669;52.624;-1.688;2023-04-05T09:38:44;101404.15;;;4.27;71.95
70256;BME280;57669;52.624;-1.688;2023-04-05T09:41:09;101404.63;;;5.20;68.34
70256;BME280;57669;52.624;-1.688;2023-04-05T09:43:36;101399.80;;;4.03;71.23
70256;BME280;57669;52.624;-1.688;2023-04-05T09:46:01;101398.47;;;6.92;64.92
70256;BME280;57669;52.624;-1.688;2023-04-05T09:51:03;101403.73;;;5.14;68.68
70256;BME280;57669;52.624;-1.688;2023-04-05T09:53:17;101397.32;;;5.91;66.91
70256;BME280;57669;52.624;-1.688;2023-04-05T09:55:42;101396.71;;;4.34;71.24
70256;BME280;57669;52.624;-1.688;2023-04-05T09:58:11;101400.43;;;6.09;67.17
70256;BME280;57669;52.624;-1.688;2023-04-05T10:00:35;101400.26;;;5.14;68.52
70256;BME280;57669;52.624;-1.688;2023-04-05T10:02:59;101400.77;;;4.80;69.61
70256;BME280;57669;52.624;-1.688;2023-04-05T10:05:26;101396.09;;;4.36;70.92
70256;BME280;57669;52.624;-1.688;2023-04-05T10:07:49;101396.21;;;4.72;69.02
70256;BME280;57669;52.624;-1.688;2023-04-05T10:10:14;101403.26;;;5.43;68.03
70256;BME280;57669;52.624;-1.688;2023-04-05T10:12:41;101401.12;;;4.95;68.41
70256;BME280;57669;52.624;-1.688;2023-04-05T10:15:06;101395.16;;;6.73;63.45
70256;BME280;57669;52.624;-1.688;2023-04-05T10:17:38;101401.41;;;5.66;67.83
70256;BME280;57669;52.624;-1.688;2023-04-05T10:20:09;101403.17;;;5.01;68.56
70256;BME280;57669;52.624;-1.688;2023-04-05T10:22:25;101399.79;;;5.96;67.20
70256;BME280;57669;52.624;-1.688;2023-04-05T10:24:51;101392.16;;;6.61;66.42
70256;BME280;57669;52.624;-1.688;2023-04-05T10:27:18;101398.23;;;7.32;62.88
70256;BME280;57669;52.624;-1.688;2023-04-05T10:29:50;101397.66;;;6.74;63.82
70256;BME280;57669;52.624;-1.688;2023-04-05T10:32:10;101396.40;;;6.18;64.05
70256;BME280;57669;52.624;-1.688;2023-04-05T10:34:38;101392.78;;;8.32;59.65
70256;BME280;57669;52.624;-1.688;2023-04-05T10:36:57;101398.12;;;6.68;63.64
70256;BME280;57669;52.624;-1.688;2023-04-05T10:39:25;101400.82;;;7.14;63.17
70256;BME280;57669;52.624;-1.688;2023-04-05T10:41:47;101395.75;;;6.65;63.88
70256;BME280;57669;52.624;-1.688;2023-04-05T10:44:11;101394.54;;;7.07;64.40
70256;BME280;57669;52.624;-1.688;2023-04-05T10:46:39;101388.08;;;8.57;60.07
70256;BME280;57669;52.624;-1.688;2023-04-05T10:49:05;101390.67;;;6.52;64.99
70256;BME280;57669;52.624;-1.688;2023-04-05T10:51:28;101391.28;;;7.00;63.26
70256;BME280;57669;52.624;-1.688;2023-04-05T10:53:55;101381.23;;;5.79;66.12
70256;BME280;57669;52.624;-1.688;2023-04-05T10:56:19;101380.94;;;6.45;66.23
70256;BME280;57669;52.624;-1.688;2023-04-05T10:58:44;101378.10;;;7.23;64.17
70256;BME280;57669;52.624;-1.688;2023-04-05T11:01:09;101377.13;;;6.74;65.18
70256;BME280;57669;52.624;-1.688;2023-04-05T11:03:40;101374.97;;;6.20;67.17
70256;BME280;57669;52.624;-1.688;2023-04-05T11:08:26;101372.62;;;6.72;66.19
70256;BME280;57669;52.624;-1.688;2023-04-05T11:10:51;101370.46;;;6.05;66.36
70256;BME280;57669;52.624;-1.688;2023-04-05T11:13:16;101369.62;;;7.30;63.63
70256;BME280;57669;52.624;-1.688;2023-04-05T11:15:42;101362.54;;;5.42;68.98
70256;BME280;57669;52.624;-1.688;2023-04-05T11:18:09;101363.57;;;6.58;64.77
70256;BME280;57669;52.624;-1.688;2023-04-05T11:20:39;101359.26;;;6.25;67.66
70256;BME280;57669;52.624;-1.688;2023-04-05T11:22:57;101359.76;;;6.18;67.15
70256;BME280;57669;52.624;-1.688;2023-04-05T11:25:24;101350.90;;;5.88;68.40
70256;BME280;57669;52.624;-1.688;2023-04-05T11:27:59;101355.13;;;7.25;65.32
70256;BME280;57669;52.624;-1.688;2023-04-05T11:30:22;101349.40;;;6.16;66.70
70256;BME280;57669;52.624;-1.688;2023-04-05T11:32:41;101348.72;;;5.56;69.63
70256;BME280;57669;52.624;-1.688;2023-04-05T11:35:07;101345.67;;;5.48;69.59
70256;BME280;57669;52.624;-1.688;2023-04-05T11:42:23;101344.07;;;5.95;71.63
70256;BME280;57669;52.624;-1.688;2023-04-05T11:44:48;101344.55;;;6.28;70.51
70256;BME280;57669;52.624;-1.688;2023-04-05T11:47:15;101343.83;;;7.22;65.71
70256;BME280;57669;52.624;-1.688;2023-04-05T11:49:39;101345.91;;;6.95;66.38
70256;BME280;57669;52.624;-1.688;2023-04-05T11:52:09;101343.28;;;7.45;65.51
70256;BME280;57669;52.624;-1.688;2023-04-05T11:54:30;101344.45;;;6.41;68.07
70256;BME280;57669;52.624;-1.688;2023-04-05T11:56:54;101338.26;;;6.38;68.25
70256;BME280;57669;52.624;-1.688;2023-04-05T11:59:27;101338.87;;;7.12;66.81
70256;BME280;57669;52.624;-1.688;2023-04-05T12:01:45;101342.86;;;6.44;67.95
70256;BME280;57669;52.624;-1.688;2023-04-05T12:04:13;101336.53;;;7.48;65.24
70256;BME280;57669;52.624;-1.688;2023-04-05T12:06:36;101337.71;;;6.34;66.76
70256;BME280;57669;52.624;-1.688;2023-04-05T12:09:06;101334.45;;;6.00;68.22
70256;BME280;57669;52.624;-1.688;2023-04-05T12:11:28;101326.82;;;6.34;69.33
70256;BME280;57669;52.624;-1.688;2023-04-05T12:13:53;101324.45;;;5.32;73.50
70256;BME280;57669;52.624;-1.688;2023-04-05T12:16:18;101320.00;;;6.50;68.92
70256;BME280;57669;52.624;-1.688;2023-04-05T12:18:43;101311.32;;;6.03;69.65
70256;BME280;57669;52.624;-1.688;2023-04-05T12:21:08;101320.85;;;6.65;70.03
70256;BME280;57669;52.624;-1.688;2023-04-05T12:23:34;101316.18;;;5.63;71.63
70256;BME280;57669;52.624;-1.688;2023-04-05T12:25:59;101308.84;;;6.12;71.80
70256;BME280;57669;52.624;-1.688;2023-04-05T12:28:25;101310.66;;;5.90;72.01
70256;BME280;57669;52.624;-1.688;2023-04-05T12:30:52;101313.51;;;7.46;68.73
70256;BME280;57669;52.624;-1.688;2023-04-05T12:35:41;101313.43;;;6.46;68.00
70256;BME280;57669;52.624;-1.688;2023-04-05T12:38:06;101310.10;;;6.55;68.76
70256;BME280;57669;52.624;-1.688;2023-04-05T12:40:33;101308.27;;;7.47;66.62
70256;BME280;57669;52.624;-1.688;2023-04-05T12:43:00;101310.41;;;6.91;67.77
70256;BME280;57669;52.624;-1.688;2023-04-05T12:45:22;101303.68;;;6.38;69.91
70256;BME280;57669;52.624;-1.688;2023-04-05T12:47:48;101298.42;;;5.55;73.76
70256;BME280;57669;52.624;-1.688;2023-04-05T12:50:13;101300.52;;;6.62;69.14
70256;BME280;57669;52.624;-1.688;2023-04-05T12:52:37;101298.04;;;7.17;67.09
70256;BME280;57669;52.624;-1.688;2023-04-05T12:55:04;101297.50;;;6.77;67.74
70256;BME280;57669;52.624;-1.688;2023-04-05T12:57:30;101298.01;;;7.04;67.85
70256;BME280;57669;52.624;-1.688;2023-04-05T12:59:54;101296.39;;;7.45;67.96
70256;BME280;57669;52.624;-1.688;2023-04-05T13:02:19;101291.33;;;6.35;70.31
70256;BME280;57669;52.624;-1.688;2023-04-05T13:04:45;101278.29;;;7.69;67.46